Terminal Aerodrome Forecast
Issued by NWS

Home | Current Version | Previous Version | Text Only | Print | Product List | Glossary On
Versions: 1 2 3 4 5 6 7 8 9 10 11 12 13 14 15 16 17 18 19 20 21 22 23 24 25 26 27 28 29 30 31 32
000
FTUS45 KSLC 011730
TAFSGU
TAF
KSGU 011730Z 0118/0218 VRB05KT P6SM VCSH FEW100 BKN180
     FM012000 25009KT P6SM VCTS SCT100CB OVC130
     FM020300 VRB06KT P6SM -SHRA BKN090 OVC130
     FM020700 VRB06KT P6SM SCT090 BKN130
      AMD LTD TO CLD VIS AND WIND=

USA.gov is the U.S. government's official web portal to all federal, state and local government web resources and services.